sensor_id;sensor_type;location;lat;lon;timestamp;P1;durP1;ratioP1;P2;durP2;ratioP2
48327;SDS011;34136;51.022;7.082;2023-04-24T00:02:46;1.25;;;0.55;;
48327;SDS011;34136;51.022;7.082;2023-04-24T00:05:40;1.35;;;0.65;;
48327;SDS011;34136;51.022;7.082;2023-04-24T00:08:33;1.52;;;0.40;;
48327;SDS011;34136;51.022;7.082;2023-04-24T00:11:27;1.77;;;0.75;;
48327;SDS011;34136;51.022;7.082;2023-04-24T00:14:15;1.20;;;0.50;;
48327;SDS011;34136;51.022;7.082;2023-04-24T00:17:03;2.55;;;0.70;;
48327;SDS011;34136;51.022;7.082;2023-04-24T00:19:53;1.63;;;0.60;;
48327;SDS011;34136;51.022;7.082;2023-04-24T00:23:14;0.70;;;0.40;;
48327;SDS011;34136;51.022;7.082;2023-04-24T00:26:03;1.02;;;0.50;;
48327;SDS011;34136;51.022;7.082;2023-04-24T00:28:55;1.30;;;0.55;;
48327;SDS011;34136;51.022;7.082;2023-04-24T00:35:34;0.90;;;0.57;;
48327;SDS011;34136;51.022;7.082;2023-04-24T00:38:21;3.35;;;0.70;;
48327;SDS011;34136;51.022;7.082;2023-04-24T00:41:09;2.08;;;0.90;;
48327;SDS011;34136;51.022;7.082;2023-04-24T00:44:07;1.33;;;0.77;;
48327;SDS011;34136;51.022;7.082;2023-04-24T00:47:04;1.50;;;0.82;;
48327;SDS011;34136;51.022;7.082;2023-04-24T00:49:52;2.25;;;0.80;;
48327;SDS011;34136;51.022;7.082;2023-04-24T00:52:46;2.67;;;0.80;;
48327;SDS011;34136;51.022;7.082;2023-04-24T00:55:33;1.42;;;0.80;;
48327;SDS011;34136;51.022;7.082;2023-04-24T00:58:20;2.15;;;1.27;;
48327;SDS011;34136;51.022;7.082;2023-04-24T01:01:14;1.70;;;1.00;;
48327;SDS011;34136;51.022;7.082;2023-04-24T01:04:10;2.33;;;1.02;;
48327;SDS011;34136;51.022;7.082;2023-04-24T01:06:58;5.32;;;1.00;;
48327;SDS011;34136;51.022;7.082;2023-04-24T01:09:47;2.45;;;1.30;;
48327;SDS011;34136;51.022;7.082;2023-04-24T01:12:37;2.17;;;0.90;;
48327;SDS011;34136;51.022;7.082;2023-04-24T01:26:49;2.80;;;1.20;;
48327;SDS011;34136;51.022;7.082;2023-04-24T01:30:30;3.03;;;1.20;;
48327;SDS011;34136;51.022;7.082;2023-04-24T01:33:27;3.03;;;1.40;;
48327;SDS011;34136;51.022;7.082;2023-04-24T01:36:56;3.53;;;1.15;;
48327;SDS011;34136;51.022;7.082;2023-04-24T01:40:18;2.80;;;1.30;;
48327;SDS011;34136;51.022;7.082;2023-04-24T01:43:13;2.25;;;1.40;;
48327;SDS011;34136;51.022;7.082;2023-04-24T01:46:21;6.45;;;1.50;;
48327;SDS011;34136;51.022;7.082;2023-04-24T01:49:11;5.95;;;2.47;;
48327;SDS011;34136;51.022;7.082;2023-04-24T01:52:18;2.95;;;2.30;;
48327;SDS011;34136;51.022;7.082;2023-04-24T01:55:20;3.30;;;2.28;;
48327;SDS011;34136;51.022;7.082;2023-04-24T01:58:19;3.63;;;2.20;;
48327;SDS011;34136;51.022;7.082;2023-04-24T02:01:22;3.28;;;2.30;;
48327;SDS011;34136;51.022;7.082;2023-04-24T02:08:17;3.25;;;2.28;;
48327;SDS011;34136;51.022;7.082;2023-04-24T02:11:31;3.63;;;2.70;;
48327;SDS011;34136;51.022;7.082;2023-04-24T02:14:23;5.57;;;2.72;;
48327;SDS011;34136;51.022;7.082;2023-04-24T02:17:23;5.22;;;3.25;;
48327;SDS011;34136;51.022;7.082;2023-04-24T02:20:24;5.32;;;3.75;;
48327;SDS011;34136;51.022;7.082;2023-04-24T02:23:37;6.68;;;4.18;;
48327;SDS011;34136;51.022;7.082;2023-04-24T02:26:43;6.85;;;4.20;;
48327;SDS011;34136;51.022;7.082;2023-04-24T02:29:51;6.40;;;4.35;;
48327;SDS011;34136;51.022;7.082;2023-04-24T02:32:38;6.30;;;5.22;;
48327;SDS011;34136;51.022;7.082;2023-04-24T02:35:29;7.10;;;4.90;;
48327;SDS011;34136;51.022;7.082;2023-04-24T02:38:29;5.88;;;4.03;;
48327;SDS011;34136;51.022;7.082;2023-04-24T02:41:32;7.22;;;5.10;;
48327;SDS011;34136;51.022;7.082;2023-04-24T02:44:18;7.40;;;5.00;;
48327;SDS011;34136;51.022;7.082;2023-04-24T02:47:04;8.70;;;4.95;;
48327;SDS011;34136;51.022;7.082;2023-04-24T02:49:50;6.70;;;4.97;;
48327;SDS011;34136;51.022;7.082;2023-04-24T02:52:37;6.88;;;5.00;;
48327;SDS011;34136;51.022;7.082;2023-04-24T02:55:24;7.68;;;4.93;;
48327;SDS011;34136;51.022;7.082;2023-04-24T02:58:11;6.55;;;4.72;;
48327;SDS011;34136;51.022;7.082;2023-04-24T03:01:05;7.22;;;4.82;;
48327;SDS011;34136;51.022;7.082;2023-04-24T03:04:02;6.75;;;4.60;;
48327;SDS011;34136;51.022;7.082;2023-04-24T03:06:57;8.40;;;5.20;;
48327;SDS011;34136;51.022;7.082;2023-04-24T03:09:44;7.63;;;5.93;;
48327;SDS011;34136;51.022;7.082;2023-04-24T03:13:04;8.55;;;4.70;;
48327;SDS011;34136;51.022;7.082;2023-04-24T03:15:50;8.45;;;5.03;;
48327;SDS011;34136;51.022;7.082;2023-04-24T03:18:55;7.32;;;5.03;;
48327;SDS011;34136;51.022;7.082;2023-04-24T03:21:48;7.22;;;5.10;;
48327;SDS011;34136;51.022;7.082;2023-04-24T03:24:53;7.32;;;5.03;;
48327;SDS011;34136;51.022;7.082;2023-04-24T03:27:39;7.13;;;5.40;;
48327;SDS011;34136;51.022;7.082;2023-04-24T03:30:35;12.60;;;5.97;;
48327;SDS011;34136;51.022;7.082;2023-04-24T03:33:27;8.70;;;5.95;;
48327;SDS011;34136;51.022;7.082;2023-04-24T03:39:12;9.43;;;6.57;;
48327;SDS011;34136;51.022;7.082;2023-04-24T03:42:24;9.93;;;6.85;;
48327;SDS011;34136;51.022;7.082;2023-04-24T03:45:30;10.02;;;7.00;;
48327;SDS011;34136;51.022;7.082;2023-04-24T03:48:17;8.52;;;6.53;;
48327;SDS011;34136;51.022;7.082;2023-04-24T03:51:14;9.05;;;6.35;;
48327;SDS011;34136;51.022;7.082;2023-04-24T03:54:04;8.70;;;6.88;;
48327;SDS011;34136;51.022;7.082;2023-04-24T03:56:54;7.25;;;6.20;;
48327;SDS011;34136;51.022;7.082;2023-04-24T03:59:42;9.65;;;6.22;;
48327;SDS011;34136;51.022;7.082;2023-04-24T04:02:37;8.75;;;6.57;;
48327;SDS011;34136;51.022;7.082;2023-04-24T04:09:05;11.02;;;6.15;;
48327;SDS011;34136;51.022;7.082;2023-04-24T04:11:55;8.82;;;6.07;;
48327;SDS011;34136;51.022;7.082;2023-04-24T04:14:59;8.02;;;5.40;;
48327;SDS011;34136;51.022;7.082;2023-04-24T04:17:54;7.90;;;6.18;;
48327;SDS011;34136;51.022;7.082;2023-04-24T04:23:35;6.57;;;5.68;;
48327;SDS011;34136;51.022;7.082;2023-04-24T04:26:32;6.85;;;5.65;;
48327;SDS011;34136;51.022;7.082;2023-04-24T04:29:27;8.75;;;5.97;;
48327;SDS011;34136;51.022;7.082;2023-04-24T04:34:57;11.35;;;6.25;;
48327;SDS011;34136;51.022;7.082;2023-04-24T04:37:51;9.70;;;5.72;;
48327;SDS011;34136;51.022;7.082;2023-04-24T04:41:08;5.82;;;5.00;;
48327;SDS011;34136;51.022;7.082;2023-04-24T04:46:41;6.95;;;5.03;;
48327;SDS011;34136;51.022;7.082;2023-04-24T04:49:47;5.38;;;4.72;;
48327;SDS011;34136;51.022;7.082;2023-04-24T04:58:12;7.07;;;4.72;;
48327;SDS011;34136;51.022;7.082;2023-04-24T05:00:59;7.50;;;5.47;;
48327;SDS011;34136;51.022;7.082;2023-04-24T05:03:50;6.17;;;5.00;;
48327;SDS011;34136;51.022;7.082;2023-04-24T05:06:36;7.20;;;3.97;;
48327;SDS011;34136;51.022;7.082;2023-04-24T05:12:06;9.85;;;4.85;;
48327;SDS011;34136;51.022;7.082;2023-04-24T05:14:58;6.72;;;4.63;;
48327;SDS011;34136;51.022;7.082;2023-04-24T05:17:49;7.72;;;4.85;;
48327;SDS011;34136;51.022;7.082;2023-04-24T05:21:18;5.90;;;5.20;;
48327;SDS011;34136;51.022;7.082;2023-04-24T05:27:10;6.15;;;4.85;;
48327;SDS011;34136;51.022;7.082;2023-04-24T05:30:00;8.48;;;4.82;;
48327;SDS011;34136;51.022;7.082;2023-04-24T05:32:47;7.20;;;5.03;;
48327;SDS011;34136;51.022;7.082;2023-04-24T05:35:36;6.10;;;4.82;;
48327;SDS011;34136;51.022;7.082;2023-04-24T05:38:24;8.13;;;4.72;;
48327;SDS011;34136;51.022;7.082;2023-04-24T05:41:11;7.50;;;5.20;;
48327;SDS011;34136;51.022;7.082;2023-04-24T05:43:59;6.88;;;5.20;;
48327;SDS011;34136;51.022;7.082;2023-04-24T05:46:49;6.55;;;4.88;;
48327;SDS011;34136;51.022;7.082;2023-04-24T05:49:39;7.95;;;6.30;;
48327;SDS011;34136;51.022;7.082;2023-04-24T05:52:27;7.03;;;5.63;;
48327;SDS011;34136;51.022;7.082;2023-04-24T05:55:20;9.00;;;6.15;;
48327;SDS011;34136;51.022;7.082;2023-04-24T05:58:16;8.52;;;6.22;;
48327;SDS011;34136;51.022;7.082;2023-04-24T06:01:16;8.10;;;6.15;;
48327;SDS011;34136;51.022;7.082;2023-04-24T06:04:18;9.70;;;6.50;;
48327;SDS011;34136;51.022;7.082;2023-04-24T06:07:23;8.73;;;6.70;;
48327;SDS011;34136;51.022;7.082;2023-04-24T06:10:15;8.02;;;6.75;;
48327;SDS011;34136;51.022;7.082;2023-04-24T06:13:05;8.23;;;7.15;;
48327;SDS011;34136;51.022;7.082;2023-04-24T06:16:09;9.63;;;7.50;;
48327;SDS011;34136;51.022;7.082;2023-04-24T06:19:12;10.45;;;7.70;;
48327;SDS011;34136;51.022;7.082;2023-04-24T06:22:08;8.32;;;6.95;;
48327;SDS011;34136;51.022;7.082;2023-04-24T06:25:08;9.15;;;6.82;;
48327;SDS011;34136;51.022;7.082;2023-04-24T06:28:20;10.95;;;7.45;;
48327;SDS011;34136;51.022;7.082;2023-04-24T06:31:33;10.48;;;7.75;;
48327;SDS011;34136;51.022;7.082;2023-04-24T06:34:20;11.95;;;7.55;;
48327;SDS011;34136;51.022;7.082;2023-04-24T06:37:08;11.05;;;8.18;;
48327;SDS011;34136;51.022;7.082;2023-04-24T06:39:55;9.27;;;7.78;;
48327;SDS011;34136;51.022;7.082;2023-04-24T06:42:42;12.13;;;8.55;;
48327;SDS011;34136;51.022;7.082;2023-04-24T06:45:29;12.45;;;8.57;;
48327;SDS011;34136;51.022;7.082;2023-04-24T06:48:16;9.82;;;8.75;;
48327;SDS011;34136;51.022;7.082;2023-04-24T06:51:06;12.10;;;9.40;;
48327;SDS011;34136;51.022;7.082;2023-04-24T06:53:54;10.02;;;7.82;;
48327;SDS011;34136;51.022;7.082;2023-04-24T06:56:50;7.45;;;6.45;;
48327;SDS011;34136;51.022;7.082;2023-04-24T06:59:37;5.38;;;3.67;;
48327;SDS011;34136;51.022;7.082;2023-04-24T07:02:28;4.43;;;2.08;;
48327;SDS011;34136;51.022;7.082;2023-04-24T07:05:15;3.15;;;2.03;;
48327;SDS011;34136;51.022;7.082;2023-04-24T07:08:02;3.65;;;2.55;;
48327;SDS011;34136;51.022;7.082;2023-04-24T07:10:49;3.45;;;1.88;;
48327;SDS011;34136;51.022;7.082;2023-04-24T07:13:36;2.13;;;1.58;;
48327;SDS011;34136;51.022;7.082;2023-04-24T07:16:22;3.55;;;1.90;;
48327;SDS011;34136;51.022;7.082;2023-04-24T07:19:12;4.18;;;2.10;;
48327;SDS011;34136;51.022;7.082;2023-04-24T07:21:59;4.88;;;2.10;;
48327;SDS011;34136;51.022;7.082;2023-04-24T07:24:45;3.63;;;1.90;;
48327;SDS011;34136;51.022;7.082;2023-04-24T07:27:32;3.72;;;2.58;;
48327;SDS011;34136;51.022;7.082;2023-04-24T07:30:21;3.80;;;2.22;;
48327;SDS011;34136;51.022;7.082;2023-04-24T07:33:07;3.30;;;2.20;;
48327;SDS011;34136;51.022;7.082;2023-04-24T07:35:54;4.80;;;2.58;;
48327;SDS011;34136;51.022;7.082;2023-04-24T07:38:42;4.15;;;2.33;;
48327;SDS011;34136;51.022;7.082;2023-04-24T07:41:28;4.05;;;2.63;;
48327;SDS011;34136;51.022;7.082;2023-04-24T07:44:14;3.72;;;1.80;;
48327;SDS011;34136;51.022;7.082;2023-04-24T07:47:01;2.75;;;1.90;;
48327;SDS011;34136;51.022;7.082;2023-04-24T07:49:48;2.85;;;1.40;;
48327;SDS011;34136;51.022;7.082;2023-04-24T07:52:36;3.35;;;2.05;;
48327;SDS011;34136;51.022;7.082;2023-04-24T07:55:22;3.45;;;1.25;;
48327;SDS011;34136;51.022;7.082;2023-04-24T07:58:09;1.65;;;1.05;;
48327;SDS011;34136;51.022;7.082;2023-04-24T08:00:55;1.88;;;1.33;;
48327;SDS011;34136;51.022;7.082;2023-04-24T08:03:42;2.15;;;1.30;;
48327;SDS011;34136;51.022;7.082;2023-04-24T08:06:28;1.98;;;1.20;;
48327;SDS011;34136;51.022;7.082;2023-04-24T08:09:15;3.15;;;1.50;;
48327;SDS011;34136;51.022;7.082;2023-04-24T08:12:01;2.75;;;1.40;;
48327;SDS011;34136;51.022;7.082;2023-04-24T08:14:49;3.47;;;1.40;;
48327;SDS011;34136;51.022;7.082;2023-04-24T08:17:36;2.75;;;1.10;;
48327;SDS011;34136;51.022;7.082;2023-04-24T08:20:22;3.03;;;1.33;;
48327;SDS011;34136;51.022;7.082;2023-04-24T08:23:09;2.05;;;1.20;;
48327;SDS011;34136;51.022;7.082;2023-04-24T08:25:56;1.70;;;1.05;;
48327;SDS011;34136;51.022;7.082;2023-04-24T08:28:43;2.85;;;1.10;;
48327;SDS011;34136;51.022;7.082;2023-04-24T08:31:30;2.10;;;1.50;;
48327;SDS011;34136;51.022;7.082;2023-04-24T08:34:17;3.08;;;2.00;;
48327;SDS011;34136;51.022;7.082;2023-04-24T08:37:03;3.45;;;1.88;;
48327;SDS011;34136;51.022;7.082;2023-04-24T08:39:50;4.53;;;2.50;;
48327;SDS011;34136;51.022;7.082;2023-04-24T08:42:37;2.47;;;1.77;;
48327;SDS011;34136;51.022;7.082;2023-04-24T08:45:26;2.15;;;1.40;;
48327;SDS011;34136;51.022;7.082;2023-04-24T08:48:13;2.30;;;1.75;;
48327;SDS011;34136;51.022;7.082;2023-04-24T08:50:59;2.25;;;1.40;;
48327;SDS011;34136;51.022;7.082;2023-04-24T08:53:46;3.72;;;1.67;;
48327;SDS011;34136;51.022;7.082;2023-04-24T08:56:41;3.45;;;2.05;;
48327;SDS011;34136;51.022;7.082;2023-04-24T08:59:32;2.70;;;1.65;;
48327;SDS011;34136;51.022;7.082;2023-04-24T09:02:24;5.43;;;3.25;;
48327;SDS011;34136;51.022;7.082;2023-04-24T09:05:12;4.65;;;3.63;;
48327;SDS011;34136;51.022;7.082;2023-04-24T09:07:59;4.95;;;2.70;;
48327;SDS011;34136;51.022;7.082;2023-04-24T09:10:48;4.72;;;2.92;;
48327;SDS011;34136;51.022;7.082;2023-04-24T09:13:35;5.78;;;3.40;;
48327;SDS011;34136;51.022;7.082;2023-04-24T09:16:22;4.50;;;3.40;;
48327;SDS011;34136;51.022;7.082;2023-04-24T09:19:10;6.50;;;3.65;;
48327;SDS011;34136;51.022;7.082;2023-04-24T09:21:56;7.10;;;4.22;;
48327;SDS011;34136;51.022;7.082;2023-04-24T09:24:42;6.72;;;4.75;;
48327;SDS011;34136;51.022;7.082;2023-04-24T09:27:31;5.65;;;3.90;;
48327;SDS011;34136;51.022;7.082;2023-04-24T09:30:21;6.93;;;4.68;;
48327;SDS011;34136;51.022;7.082;2023-04-24T09:33:13;7.13;;;4.75;;
48327;SDS011;34136;51.022;7.082;2023-04-24T09:36:01;8.05;;;4.80;;
48327;SDS011;34136;51.022;7.082;2023-04-24T09:38:48;6.65;;;4.60;;
48327;SDS011;34136;51.022;7.082;2023-04-24T09:41:34;8.18;;;5.55;;
48327;SDS011;34136;51.022;7.082;2023-04-24T09:44:21;7.70;;;5.03;;
48327;SDS011;34136;51.022;7.082;2023-04-24T09:47:08;9.00;;;5.70;;
48327;SDS011;34136;51.022;7.082;2023-04-24T09:49:57;8.90;;;5.45;;
48327;SDS011;34136;51.022;7.082;2023-04-24T09:52:55;9.32;;;6.13;;
48327;SDS011;34136;51.022;7.082;2023-04-24T09:55:44;11.07;;;7.00;;
48327;SDS011;34136;51.022;7.082;2023-04-24T09:58:31;9.43;;;6.70;;
48327;SDS011;34136;51.022;7.082;2023-04-24T10:01:28;10.98;;;6.47;;
48327;SDS011;34136;51.022;7.082;2023-04-24T10:04:17;11.82;;;6.60;;
48327;SDS011;34136;51.022;7.082;2023-04-24T10:07:04;10.65;;;8.10;;
48327;SDS011;34136;51.022;7.082;2023-04-24T10:09:51;12.90;;;9.00;;
48327;SDS011;34136;51.022;7.082;2023-04-24T10:12:37;13.52;;;8.80;;
48327;SDS011;34136;51.022;7.082;2023-04-24T10:15:24;12.38;;;8.25;;
48327;SDS011;34136;51.022;7.082;2023-04-24T10:18:11;10.57;;;7.88;;
48327;SDS011;34136;51.022;7.082;2023-04-24T10:20:58;14.73;;;8.63;;
48327;SDS011;34136;51.022;7.082;2023-04-24T10:23:45;13.02;;;8.70;;
48327;SDS011;34136;51.022;7.082;2023-04-24T10:26:32;13.57;;;8.90;;
48327;SDS011;34136;51.022;7.082;2023-04-24T10:29:20;13.80;;;9.05;;
48327;SDS011;34136;51.022;7.082;2023-04-24T10:32:07;16.52;;;8.93;;
48327;SDS011;34136;51.022;7.082;2023-04-24T10:34:54;14.13;;;9.30;;
48327;SDS011;34136;51.022;7.082;2023-04-24T10:37:41;14.27;;;10.02;;
48327;SDS011;34136;51.022;7.082;2023-04-24T10:40:35;21.17;;;10.93;;
48327;SDS011;34136;51.022;7.082;2023-04-24T10:43:22;16.25;;;11.25;;
48327;SDS011;34136;51.022;7.082;2023-04-24T10:46:08;13.90;;;8.77;;
48327;SDS011;34136;51.022;7.082;2023-04-24T10:48:54;13.65;;;8.18;;
48327;SDS011;34136;51.022;7.082;2023-04-24T10:57:26;12.32;;;7.60;;
48327;SDS011;34136;51.022;7.082;2023-04-24T11:00:20;12.48;;;7.70;;
48327;SDS011;34136;51.022;7.082;2023-04-24T11:03:07;11.80;;;7.07;;
48327;SDS011;34136;51.022;7.082;2023-04-24T11:06:08;11.75;;;5.25;;
48327;SDS011;34136;51.022;7.082;2023-04-24T11:08:58;10.82;;;5.20;;
48327;SDS011;34136;51.022;7.082;2023-04-24T11:11:52;9.15;;;5.10;;
48327;SDS011;34136;51.022;7.082;2023-04-24T11:17:41;10.48;;;4.15;;
48327;SDS011;34136;51.022;7.082;2023-04-24T11:20:28;9.85;;;4.07;;
48327;SDS011;34136;51.022;7.082;2023-04-24T11:23:14;12.73;;;3.78;;
48327;SDS011;34136;51.022;7.082;2023-04-24T11:26:09;9.48;;;3.95;;
48327;SDS011;34136;51.022;7.082;2023-04-24T11:29:06;9.30;;;3.65;;
48327;SDS011;34136;51.022;7.082;2023-04-24T11:31:53;11.95;;;5.00;;
48327;SDS011;34136;51.022;7.082;2023-04-24T11:34:39;10.02;;;3.83;;
48327;SDS011;34136;51.022;7.082;2023-04-24T11:37:33;14.57;;;5.93;;
48327;SDS011;34136;51.022;7.082;2023-04-24T11:40:24;8.45;;;3.17;;
48327;SDS011;34136;51.022;7.082;2023-04-24T11:43:11;15.18;;;4.28;;
48327;SDS011;34136;51.022;7.082;2023-04-24T11:45:59;9.07;;;3.25;;
48327;SDS011;34136;51.022;7.082;2023-04-24T11:48:45;9.20;;;3.30;;
48327;SDS011;34136;51.022;7.082;2023-04-24T11:51:31;13.02;;;4.25;;
48327;SDS011;34136;51.022;7.082;2023-04-24T11:54:18;14.88;;;4.10;;
48327;SDS011;34136;51.022;7.082;2023-04-24T11:57:04;13.50;;;4.78;;
48327;SDS011;34136;51.022;7.082;2023-04-24T11:59:51;14.43;;;5.00;;
48327;SDS011;34136;51.022;7.082;2023-04-24T12:02:37;9.65;;;4.60;;
48327;SDS011;34136;51.022;7.082;2023-04-24T12:05:25;11.50;;;4.15;;
48327;SDS011;34136;51.022;7.082;2023-04-24T12:08:12;10.07;;;4.07;;
48327;SDS011;34136;51.022;7.082;2023-04-24T12:11:14;8.73;;;3.95;;
48327;SDS011;34136;51.022;7.082;2023-04-24T12:14:11;12.00;;;3.85;;
48327;SDS011;34136;51.022;7.082;2023-04-24T12:16:57;9.23;;;4.25;;
48327;SDS011;34136;51.022;7.082;2023-04-24T12:19:46;12.15;;;4.32;;
48327;SDS011;34136;51.022;7.082;2023-04-24T12:22:43;11.30;;;4.60;;
48327;SDS011;34136;51.022;7.082;2023-04-24T12:25:33;11.27;;;5.45;;
48327;SDS011;34136;51.022;7.082;2023-04-24T12:28:20;8.45;;;3.60;;
48327;SDS011;34136;51.022;7.082;2023-04-24T12:31:06;10.73;;;4.22;;
48327;SDS011;34136;51.022;7.082;2023-04-24T12:33:53;12.80;;;3.95;;
48327;SDS011;34136;51.022;7.082;2023-04-24T12:36:40;9.73;;;3.92;;
48327;SDS011;34136;51.022;7.082;2023-04-24T12:39:27;13.80;;;4.18;;
48327;SDS011;34136;51.022;7.082;2023-04-24T12:42:13;11.93;;;3.88;;
48327;SDS011;34136;51.022;7.082;2023-04-24T12:45:03;11.75;;;3.50;;
48327;SDS011;34136;51.022;7.082;2023-04-24T12:47:51;13.50;;;3.70;;
48327;SDS011;34136;51.022;7.082;2023-04-24T12:50:37;9.63;;;3.35;;
48327;SDS011;34136;51.022;7.082;2023-04-24T12:53:25;12.75;;;3.55;;
48327;SDS011;34136;51.022;7.082;2023-04-24T12:56:11;8.68;;;3.40;;
48327;SDS011;34136;51.022;7.082;2023-04-24T12:58:58;9.10;;;3.38;;
48327;SDS011;34136;51.022;7.082;2023-04-24T13:01:44;7.75;;;3.15;;
48327;SDS011;34136;51.022;7.082;2023-04-24T13:04:30;11.45;;;3.97;;
48327;SDS011;34136;51.022;7.082;2023-04-24T13:07:16;6.45;;;2.70;;
48327;SDS011;34136;51.022;7.082;2023-04-24T13:10:03;12.07;;;3.15;;
48327;SDS011;34136;51.022;7.082;2023-04-24T13:12:50;7.95;;;2.88;;
48327;SDS011;34136;51.022;7.082;2023-04-24T13:15:36;8.60;;;3.05;;
48327;SDS011;34136;51.022;7.082;2023-04-24T13:18:22;11.80;;;3.20;;
48327;SDS011;34136;51.022;7.082;2023-04-24T13:21:08;10.27;;;3.20;;
48327;SDS011;34136;51.022;7.082;2023-04-24T13:23:54;8.90;;;3.13;;
48327;SDS011;34136;51.022;7.082;2023-04-24T13:26:41;12.60;;;3.30;;
48327;SDS011;34136;51.022;7.082;2023-04-24T13:29:27;8.07;;;2.92;;
48327;SDS011;34136;51.022;7.082;2023-04-24T13:32:13;6.35;;;2.90;;
48327;SDS011;34136;51.022;7.082;2023-04-24T13:35:00;9.77;;;2.70;;
48327;SDS011;34136;51.022;7.082;2023-04-24T13:37:46;8.98;;;2.78;;
48327;SDS011;34136;51.022;7.082;2023-04-24T13:40:32;9.45;;;3.05;;
48327;SDS011;34136;51.022;7.082;2023-04-24T13:43:19;10.57;;;2.45;;
48327;SDS011;34136;51.022;7.082;2023-04-24T13:46:06;7.78;;;2.72;;
48327;SDS011;34136;51.022;7.082;2023-04-24T13:48:53;7.82;;;3.00;;
48327;SDS011;34136;51.022;7.082;2023-04-24T13:51:39;8.98;;;2.90;;
48327;SDS011;34136;51.022;7.082;2023-04-24T13:54:26;8.07;;;2.60;;
48327;SDS011;34136;51.022;7.082;2023-04-24T13:57:13;10.02;;;3.20;;
48327;SDS011;34136;51.022;7.082;2023-04-24T13:59:59;8.98;;;3.00;;
48327;SDS011;34136;51.022;7.082;2023-04-24T14:02:46;12.30;;;3.50;;
48327;SDS011;34136;51.022;7.082;2023-04-24T14:05:32;8.65;;;3.38;;
48327;SDS011;34136;51.022;7.082;2023-04-24T14:08:18;8.55;;;2.78;;
48327;SDS011;34136;51.022;7.082;2023-04-24T14:11:04;9.20;;;3.30;;
48327;SDS011;34136;51.022;7.082;2023-04-24T14:13:51;7.70;;;2.63;;
48327;SDS011;34136;51.022;7.082;2023-04-24T14:16:37;7.40;;;2.63;;
48327;SDS011;34136;51.022;7.082;2023-04-24T14:19:23;9.98;;;2.80;;
48327;SDS011;34136;51.022;7.082;2023-04-24T14:22:09;8.02;;;3.05;;
48327;SDS011;34136;51.022;7.082;2023-04-24T14:24:55;10.50;;;3.33;;
48327;SDS011;34136;51.022;7.082;2023-04-24T14:27:41;7.18;;;3.03;;
48327;SDS011;34136;51.022;7.082;2023-04-24T14:30:27;7.25;;;2.65;;
48327;SDS011;34136;51.022;7.082;2023-04-24T14:33:14;6.50;;;3.28;;
48327;SDS011;34136;51.022;7.082;2023-04-24T14:36:00;10.13;;;2.95;;
48327;SDS011;34136;51.022;7.082;2023-04-24T14:38:46;11.07;;;2.92;;
48327;SDS011;34136;51.022;7.082;2023-04-24T14:41:33;7.32;;;3.15;;
48327;SDS011;34136;51.022;7.082;2023-04-24T14:44:19;9.43;;;3.35;;
48327;SDS011;34136;51.022;7.082;2023-04-24T14:47:06;6.38;;;3.20;;
48327;SDS011;34136;51.022;7.082;2023-04-24T14:49:52;9.82;;;3.20;;
48327;SDS011;34136;51.022;7.082;2023-04-24T14:52:38;7.18;;;2.63;;
48327;SDS011;34136;51.022;7.082;2023-04-24T14:55:25;8.50;;;3.38;;
48327;SDS011;34136;51.022;7.082;2023-04-24T14:58:11;7.68;;;3.20;;
48327;SDS011;34136;51.022;7.082;2023-04-24T15:00:57;9.48;;;2.90;;
48327;SDS011;34136;51.022;7.082;2023-04-24T15:03:43;7.97;;;2.60;;
48327;SDS011;34136;51.022;7.082;2023-04-24T15:06:34;5.47;;;2.40;;
48327;SDS011;34136;51.022;7.082;2023-04-24T15:09:21;7.88;;;2.50;;
48327;SDS011;34136;51.022;7.082;2023-04-24T15:12:17;9.82;;;2.72;;
48327;SDS011;34136;51.022;7.082;2023-04-24T15:16:29;4.63;;;2.08;;
48327;SDS011;34136;51.022;7.082;2023-04-24T15:19:54;5.75;;;2.55;;
48327;SDS011;34136;51.022;7.082;2023-04-24T15:22:47;5.53;;;2.30;;
48327;SDS011;34136;51.022;7.082;2023-04-24T15:25:34;6.60;;;2.60;;
48327;SDS011;34136;51.022;7.082;2023-04-24T15:28:22;9.50;;;2.85;;
48327;SDS011;34136;51.022;7.082;2023-04-24T15:31:08;8.65;;;2.90;;
48327;SDS011;34136;51.022;7.082;2023-04-24T15:33:54;9.02;;;2.67;;
48327;SDS011;34136;51.022;7.082;2023-04-24T15:36:41;7.28;;;3.08;;
48327;SDS011;34136;51.022;7.082;2023-04-24T15:39:27;6.30;;;2.50;;
48327;SDS011;34136;51.022;7.082;2023-04-24T15:42:24;7.25;;;2.42;;
48327;SDS011;34136;51.022;7.082;2023-04-24T15:45:49;4.15;;;2.42;;
48327;SDS011;34136;51.022;7.082;2023-04-24T15:48:51;5.00;;;2.38;;
48327;SDS011;34136;51.022;7.082;2023-04-24T15:51:45;8.05;;;2.30;;
48327;SDS011;34136;51.022;7.082;2023-04-24T15:54:40;7.05;;;2.47;;
48327;SDS011;34136;51.022;7.082;2023-04-24T15:57:31;6.95;;;2.08;;
48327;SDS011;34136;51.022;7.082;2023-04-24T16:00:26;6.07;;;2.15;;
48327;SDS011;34136;51.022;7.082;2023-04-24T16:03:24;4.45;;;2.20;;
48327;SDS011;34136;51.022;7.082;2023-04-24T16:06:51;4.05;;;2.58;;
48327;SDS011;34136;51.022;7.082;2023-04-24T16:12:48;4.57;;;2.10;;
48327;SDS011;34136;51.022;7.082;2023-04-24T16:15:43;6.70;;;2.40;;
48327;SDS011;34136;51.022;7.082;2023-04-24T16:18:37;5.90;;;2.47;;
48327;SDS011;34136;51.022;7.082;2023-04-24T16:21:56;5.07;;;2.30;;
48327;SDS011;34136;51.022;7.082;2023-04-24T16:29:37;5.03;;;2.37;;
48327;SDS011;34136;51.022;7.082;2023-04-24T16:33:03;6.03;;;2.30;;
48327;SDS011;34136;51.022;7.082;2023-04-24T16:36:42;9.40;;;2.35;;
48327;SDS011;34136;51.022;7.082;2023-04-24T16:44:10;6.15;;;2.05;;
48327;SDS011;34136;51.022;7.082;2023-04-24T17:22:20;7.60;;;2.40;;
48327;SDS011;34136;51.022;7.082;2023-04-24T17:29:39;4.88;;;1.42;;
48327;SDS011;34136;51.022;7.082;2023-04-24T17:32:35;5.72;;;1.52;;
48327;SDS011;34136;51.022;7.082;2023-04-24T17:36:34;5.35;;;1.67;;
48327;SDS011;34136;51.022;7.082;2023-04-24T17:40:06;4.90;;;1.73;;
48327;SDS011;34136;51.022;7.082;2023-04-24T17:43:35;5.05;;;1.60;;
48327;SDS011;34136;51.022;7.082;2023-04-24T17:51:28;3.88;;;1.60;;
48327;SDS011;34136;51.022;7.082;2023-04-24T17:54:31;3.25;;;1.50;;
48327;SDS011;34136;51.022;7.082;2023-04-24T17:57:27;5.18;;;1.67;;
48327;SDS011;34136;51.022;7.082;2023-04-24T18:00:24;5.65;;;1.50;;
48327;SDS011;34136;51.022;7.082;2023-04-24T18:11:55;4.47;;;1.30;;
48327;SDS011;34136;51.022;7.082;2023-04-24T18:26:55;4.95;;;1.40;;
48327;SDS011;34136;51.022;7.082;2023-04-24T18:31:02;6.18;;;2.10;;
48327;SDS011;34136;51.022;7.082;2023-04-24T18:34:58;3.78;;;1.65;;
48327;SDS011;34136;51.022;7.082;2023-04-24T18:39:01;2.97;;;1.30;;
48327;SDS011;34136;51.022;7.082;2023-04-24T18:42:33;5.33;;;1.60;;
48327;SDS011;34136;51.022;7.082;2023-04-24T18:46:04;5.80;;;1.70;;
48327;SDS011;34136;51.022;7.082;2023-04-24T18:49:32;5.80;;;1.40;;
48327;SDS011;34136;51.022;7.082;2023-04-24T18:52:41;3.83;;;1.58;;
48327;SDS011;34136;51.022;7.082;2023-04-24T18:55:56;5.70;;;1.80;;
48327;SDS011;34136;51.022;7.082;2023-04-24T18:58:44;5.65;;;2.05;;
48327;SDS011;34136;51.022;7.082;2023-04-24T19:01:39;3.70;;;1.33;;
48327;SDS011;34136;51.022;7.082;2023-04-24T19:04:40;5.10;;;1.40;;
48327;SDS011;34136;51.022;7.082;2023-04-24T19:07:41;5.32;;;1.60;;
48327;SDS011;34136;51.022;7.082;2023-04-24T19:10:37;4.82;;;1.80;;
48327;SDS011;34136;51.022;7.082;2023-04-24T19:13:39;4.95;;;2.17;;
48327;SDS011;34136;51.022;7.082;2023-04-24T19:16:50;5.40;;;1.70;;
48327;SDS011;34136;51.022;7.082;2023-04-24T19:19:43;4.63;;;1.90;;
48327;SDS011;34136;51.022;7.082;2023-04-24T19:22:35;3.83;;;1.60;;
48327;SDS011;34136;51.022;7.082;2023-04-24T19:25:31;5.18;;;1.42;;
48327;SDS011;34136;51.022;7.082;2023-04-24T19:28:27;4.38;;;1.55;;
48327;SDS011;34136;51.022;7.082;2023-04-24T19:31:25;3.83;;;1.63;;
48327;SDS011;34136;51.022;7.082;2023-04-24T19:34:13;5.97;;;1.90;;
48327;SDS011;34136;51.022;7.082;2023-04-24T19:37:08;5.22;;;2.30;;